createdAt,value
2023-02-03T00:00:48.832Z,9.443686
2023-02-03T00:01:48.807Z,9.443685
2023-02-03T00:02:48.844Z,9.443734
2023-02-03T00:03:48.778Z,9.443790
2023-02-03T00:04:48.815Z,9.443781
2023-02-03T00:05:49.734Z,9.443783
2023-02-03T00:06:48.744Z,9.443766
2023-02-03T00:07:48.762Z,9.443410
2023-02-03T00:08:48.733Z,9.443433
2023-02-03T00:09:48.739Z,9.443486
2023-02-03T00:10:48.736Z,9.443583
2023-02-03T00:11:48.753Z,9.443644
2023-02-03T00:12:48.747Z,9.443642
2023-02-03T00:13:48.738Z,9.443645
2023-02-03T00:14:48.728Z,9.443715
2023-02-03T00:15:48.728Z,9.443706
2023-02-03T00:16:48.776Z,9.443675
2023-02-03T00:17:48.738Z,9.443658
2023-02-03T00:18:48.684Z,9.443674
2023-02-03T00:19:48.673Z,9.443677
2023-02-03T00:20:48.669Z,9.443645
2023-02-03T00:21:48.694Z,9.443672
2023-02-03T00:22:48.666Z,9.443628
2023-02-03T00:23:48.670Z,9.443604
2023-02-03T00:24:48.642Z,9.443659
2023-02-03T00:25:48.661Z,9.443645
2023-02-03T00:26:48.695Z,9.443661
2023-02-03T00:27:48.687Z,9.443695
2023-02-03T00:28:48.634Z,9.443691
2023-02-03T00:29:48.617Z,9.443635
2023-02-03T00:30:48.621Z,9.443706
2023-02-03T00:31:48.729Z,9.443754
2023-02-03T00:32:48.625Z,9.443711
2023-02-03T00:33:48.607Z,9.443725
2023-02-03T00:34:48.589Z,9.443762
2023-02-03T00:35:48.597Z,9.443731
2023-02-03T00:36:48.587Z,9.443753
2023-02-03T00:37:48.575Z,9.443740
2023-02-03T00:38:48.559Z,9.443727
2023-02-03T00:39:48.574Z,9.443703
2023-02-03T00:40:48.567Z,9.443728
2023-02-03T00:41:48.545Z,9.443755
2023-02-03T00:42:48.596Z,9.443758
2023-02-03T00:43:48.543Z,9.443748
2023-02-03T00:44:48.539Z,9.443738
2023-02-03T00:45:48.576Z,9.443729
2023-02-03T00:46:48.554Z,9.443730
2023-02-03T00:47:48.514Z,9.443707
2023-02-03T00:48:48.504Z,9.443751
2023-02-03T00:49:48.570Z,9.443718
2023-02-03T00:50:48.512Z,9.443725
2023-02-03T00:51:48.561Z,9.443733
2023-02-03T00:52:48.484Z,9.443743
2023-02-03T00:53:48.520Z,9.443769
2023-02-03T00:54:48.521Z,9.443750
2023-02-03T00:55:48.485Z,9.443780
2023-02-03T00:56:48.494Z,9.443839
2023-02-03T00:57:48.476Z,9.443592
2023-02-03T00:58:48.447Z,9.443666
2023-02-03T00:59:48.487Z,9.443622
2023-02-03T01:00:48.502Z,9.443664
2023-02-03T01:01:48.449Z,9.443695
2023-02-03T01:02:48.434Z,9.443812
2023-02-03T01:03:48.439Z,9.443752
2023-02-03T01:04:48.415Z,9.443717
2023-02-03T01:05:48.479Z,9.443669
2023-02-03T01:06:48.403Z,9.443771
2023-02-03T01:07:48.408Z,9.443773
2023-02-03T01:08:48.439Z,9.443673
2023-02-03T01:09:48.410Z,9.443693
2023-02-03T01:10:48.399Z,9.443819
2023-02-03T01:11:48.371Z,9.443835
2023-02-03T01:12:48.369Z,9.443739
2023-02-03T01:13:48.394Z,9.443798
2023-02-03T01:14:48.372Z,9.443783
2023-02-03T01:15:48.403Z,9.443687
2023-02-03T01:16:48.475Z,9.443732
2023-02-03T01:17:48.354Z,9.443771
2023-02-03T01:18:48.414Z,9.443818
2023-02-03T01:19:48.346Z,9.443824
2023-02-03T01:20:48.336Z,9.443685
2023-02-03T01:21:48.319Z,9.443682
2023-02-03T01:22:48.312Z,9.443691
2023-02-03T01:23:49.311Z,9.443781
2023-02-03T01:24:48.306Z,9.443907
2023-02-03T01:25:48.337Z,9.443812
2023-02-03T01:26:48.362Z,9.443785
2023-02-03T01:27:48.369Z,9.443744
2023-02-03T01:28:48.261Z,9.443711
2023-02-03T01:29:48.297Z,9.443799
2023-02-03T01:30:48.492Z,9.443773
2023-02-03T01:31:48.387Z,9.443754
2023-02-03T01:32:48.245Z,9.443692
2023-02-03T01:33:48.246Z,9.443663
2023-02-03T01:34:48.242Z,9.443708
2023-02-03T01:35:48.258Z,9.443717
2023-02-03T01:36:48.213Z,9.443686
2023-02-03T01:37:48.228Z,9.443783
2023-02-03T01:38:48.231Z,9.443668
2023-02-03T01:39:48.217Z,9.443556
2023-02-03T01:40:48.208Z,9.443688
2023-02-03T01:41:48.278Z,9.443588
2023-02-03T01:42:48.215Z,9.443678
2023-02-03T01:43:48.209Z,9.443699
2023-02-03T01:44:48.193Z,9.443699
2023-02-03T01:45:48.240Z,9.443714
2023-02-03T01:46:48.175Z,9.443746
2023-02-03T01:47:48.231Z,9.443728
2023-02-03T01:48:48.144Z,9.443776
2023-02-03T01:49:48.156Z,9.443717
2023-02-03T01:50:48.151Z,9.443692
2023-02-03T01:51:48.169Z,9.443689
2023-02-03T01:52:48.211Z,9.443700
2023-02-03T01:53:48.186Z,9.443675
2023-02-03T01:54:48.156Z,9.443763
2023-02-03T01:55:48.125Z,9.443868
2023-02-03T01:56:48.123Z,9.443750
2023-02-03T01:57:48.127Z,9.443723
2023-02-03T01:58:48.090Z,9.443745
2023-02-03T01:59:48.120Z,9.443769
2023-02-03T02:00:48.082Z,9.443727
2023-02-03T02:01:48.182Z,9.443670
2023-02-03T02:02:48.209Z,9.443717
2023-02-03T02:03:48.074Z,9.443666
2023-02-03T02:04:48.060Z,9.443635
2023-02-03T02:05:48.068Z,9.443609
2023-02-03T02:06:48.094Z,9.443705
2023-02-03T02:07:48.063Z,9.443741
2023-02-03T02:08:48.044Z,9.443807
2023-02-03T02:09:48.058Z,9.443825
2023-02-03T02:10:48.054Z,9.443702
2023-02-03T02:11:48.062Z,9.443704
2023-02-03T02:12:48.005Z,9.443712
2023-02-03T02:13:47.999Z,9.443649
2023-02-03T02:14:48.013Z,9.443723
2023-02-03T02:15:48.073Z,9.443730
2023-02-03T02:16:48.022Z,9.443592
2023-02-03T02:17:48.007Z,9.443601
2023-02-03T02:18:47.977Z,9.443643
2023-02-03T02:19:48.036Z,9.443595
2023-02-03T02:20:47.989Z,9.443641
2023-02-03T02:21:48.028Z,9.443455
2023-02-03T02:22:47.995Z,9.443566
2023-02-03T02:23:47.967Z,9.443713
2023-02-03T02:24:47.948Z,9.443830
2023-02-03T02:25:47.967Z,9.443860
2023-02-03T02:26:47.968Z,9.443739
2023-02-03T02:27:47.984Z,9.443664
2023-02-03T02:28:47.920Z,9.443746
2023-02-03T02:29:47.909Z,9.443686
2023-02-03T02:30:48.033Z,9.443795
2023-02-03T02:31:48.067Z,9.443688
2023-02-03T02:32:47.927Z,9.443639
2023-02-03T02:33:47.915Z,9.443731
2023-02-03T02:34:47.919Z,9.443779
2023-02-03T02:35:47.896Z,9.443653
2023-02-03T02:36:47.926Z,9.443823
2023-02-03T02:37:47.869Z,9.443745
2023-02-03T02:38:47.882Z,9.443504
2023-02-03T02:39:47.904Z,9.443444
2023-02-03T02:40:47.911Z,9.443676
2023-02-03T02:41:47.897Z,9.443568
2023-02-03T02:42:47.856Z,9.443716
2023-02-03T02:43:48.875Z,9.443781
2023-02-03T02:44:47.864Z,9.443793
2023-02-03T02:45:47.877Z,9.443534
2023-02-03T02:46:47.831Z,9.443517
2023-02-03T02:47:47.852Z,9.443623
2023-02-03T02:48:47.821Z,9.443540
2023-02-03T02:49:47.905Z,9.443198
2023-02-03T02:50:47.843Z,9.443248
2023-02-03T02:51:47.808Z,9.443192
2023-02-03T02:52:47.795Z,9.443349
2023-02-03T02:53:47.786Z,9.443548
2023-02-03T02:54:47.809Z,9.443478
2023-02-03T02:55:47.794Z,9.443205
2023-02-03T02:56:47.795Z,9.443247
2023-02-03T02:57:47.784Z,9.443447
2023-02-03T02:58:47.763Z,9.443647
2023-02-03T02:59:47.812Z,9.443696
2023-02-03T03:00:47.759Z,9.443724
2023-02-03T03:01:47.814Z,9.443747
2023-02-03T03:02:47.781Z,9.443849
2023-02-03T03:03:47.745Z,9.443852
2023-02-03T03:04:47.819Z,9.443830
2023-02-03T03:05:48.753Z,9.443853
2023-02-03T03:06:47.731Z,9.443801
2023-02-03T03:07:48.751Z,9.443744
2023-02-03T03:08:47.712Z,9.443790
2023-02-03T03:09:47.709Z,9.443791
2023-02-03T03:10:47.694Z,9.443748
2023-02-03T03:11:47.709Z,9.443763
2023-02-03T03:12:47.695Z,9.443769
2023-02-03T03:13:47.686Z,9.443740
2023-02-03T03:14:47.671Z,9.443744
2023-02-03T03:15:47.717Z,9.443715
2023-02-03T03:16:47.684Z,9.443703
2023-02-03T03:17:47.666Z,9.443659
2023-02-03T03:18:47.694Z,9.443651
2023-02-03T03:19:47.667Z,9.443724
2023-02-03T03:20:47.649Z,9.443753
2023-02-03T03:21:47.631Z,9.443708
2023-02-03T03:22:47.642Z,9.443706
2023-02-03T03:23:47.645Z,9.443713
2023-02-03T03:24:47.666Z,9.443670
2023-02-03T03:25:47.643Z,9.443800
2023-02-03T03:26:47.614Z,9.443700
2023-02-03T03:27:47.661Z,9.443662
2023-02-03T03:28:47.622Z,9.443661
2023-02-03T03:29:47.637Z,9.443771
2023-02-03T03:30:47.695Z,9.443730
2023-02-03T03:31:47.620Z,9.443754
2023-02-03T03:32:47.621Z,9.443667
2023-02-03T03:33:47.601Z,9.443723
2023-02-03T03:34:47.666Z,9.443777
2023-02-03T03:35:47.575Z,9.443707
2023-02-03T03:36:47.548Z,9.443695
2023-02-03T03:37:47.560Z,9.443702
2023-02-03T03:38:47.548Z,9.443707
2023-02-03T03:39:48.542Z,9.443715
2023-02-03T03:40:47.530Z,9.443663
2023-02-03T03:41:47.545Z,9.443694
2023-02-03T03:42:47.591Z,9.443665
2023-02-03T03:43:47.525Z,9.443716
2023-02-03T03:44:47.514Z,9.443692
2023-02-03T03:45:47.523Z,9.443730
2023-02-03T03:46:47.572Z,9.443731
2023-02-03T03:47:47.503Z,9.443621
2023-02-03T03:48:47.485Z,9.443646
2023-02-03T03:49:47.530Z,9.443677
2023-02-03T03:50:47.525Z,9.443685
2023-02-03T03:51:47.476Z,9.443749
2023-02-03T03:52:47.456Z,9.443654
2023-02-03T03:53:47.470Z,9.443767
2023-02-03T03:54:47.463Z,9.443677
2023-02-03T03:55:47.473Z,9.443601
2023-02-03T03:56:47.460Z,9.443662
2023-02-03T03:57:47.459Z,9.443555
2023-02-03T03:58:47.439Z,9.443583
2023-02-03T03:59:47.444Z,9.443620
2023-02-03T04:00:47.440Z,9.443689
2023-02-03T04:01:47.578Z,9.443673
2023-02-03T04:02:47.537Z,9.443668
2023-02-03T04:03:47.431Z,9.443679
2023-02-03T04:04:47.406Z,9.443659
2023-02-03T04:05:47.397Z,9.443650
2023-02-03T04:06:47.398Z,9.443633
2023-02-03T04:07:47.433Z,9.443851
2023-02-03T04:08:47.381Z,9.443793
2023-02-03T04:09:47.367Z,9.443822
2023-02-03T04:10:47.399Z,9.443813
2023-02-03T04:11:47.373Z,9.443821
2023-02-03T04:12:47.361Z,9.443751
2023-02-03T04:13:47.375Z,9.443744
2023-02-03T04:14:48.157Z,9.443788
2023-02-03T04:15:47.384Z,9.443790
2023-02-03T04:16:47.333Z,9.443836
2023-02-03T04:17:47.374Z,9.443743
2023-02-03T04:18:47.328Z,9.443782
2023-02-03T04:19:47.332Z,9.443778
2023-02-03T04:20:47.349Z,9.443723
2023-02-03T04:21:47.325Z,9.443802
2023-02-03T04:22:47.330Z,9.443779
2023-02-03T04:23:47.333Z,9.443730
2023-02-03T04:24:47.316Z,9.443698
2023-02-03T04:25:47.344Z,9.443720
2023-02-03T04:26:47.289Z,9.443710
2023-02-03T04:27:47.380Z,9.443682
2023-02-03T04:28:47.287Z,9.443628
2023-02-03T04:29:47.271Z,9.443614
2023-02-03T04:30:47.298Z,9.443592
2023-02-03T04:31:47.316Z,9.443570
2023-02-03T04:32:47.279Z,9.443604
2023-02-03T04:33:47.233Z,9.443620
2023-02-03T04:34:47.266Z,9.443734
2023-02-03T04:35:47.237Z,9.443689
2023-02-03T04:36:47.223Z,9.443617
2023-02-03T04:37:47.253Z,9.443569
2023-02-03T04:38:47.219Z,9.443678
2023-02-03T04:39:47.189Z,9.443700
2023-02-03T04:40:47.749Z,9.443743
2023-02-03T04:41:47.209Z,9.443791
2023-02-03T04:42:47.231Z,9.443712
2023-02-03T04:43:47.180Z,9.443716
2023-02-03T04:44:47.233Z,9.443669
2023-02-03T04:45:47.217Z,9.443682
2023-02-03T04:46:47.160Z,9.443617
2023-02-03T04:47:47.186Z,9.443534
2023-02-03T04:48:47.189Z,9.443430
2023-02-03T04:49:47.143Z,9.443377
2023-02-03T04:50:47.125Z,9.443368
2023-02-03T04:51:47.096Z,9.443399
2023-02-03T04:52:48.768Z,9.443609
2023-02-03T04:53:47.128Z,9.443529
2023-02-03T04:54:47.097Z,9.443716
2023-02-03T04:55:47.097Z,9.443736
2023-02-03T04:56:47.073Z,9.443688
2023-02-03T04:57:47.109Z,9.443699
2023-02-03T04:58:47.085Z,9.443589
2023-02-03T04:59:47.056Z,9.443558
2023-02-03T05:00:47.092Z,9.443485
2023-02-03T05:01:47.159Z,9.443522
2023-02-03T05:02:47.133Z,9.443575
2023-02-03T05:03:47.061Z,9.443608
2023-02-03T05:04:47.052Z,9.443686
2023-02-03T05:05:47.100Z,9.443623
2023-02-03T05:06:47.027Z,9.443637
2023-02-03T05:07:47.021Z,9.443612
2023-02-03T05:08:47.066Z,9.443602
2023-02-03T05:09:47.055Z,9.443514
2023-02-03T05:10:47.032Z,9.443564
2023-02-03T05:11:47.010Z,9.443582
2023-02-03T05:12:46.997Z,9.443700
2023-02-03T05:13:47.001Z,9.443728
2023-02-03T05:14:46.990Z,9.443774
2023-02-03T05:15:46.994Z,9.443776
2023-02-03T05:16:47.066Z,9.443758
2023-02-03T05:17:46.986Z,9.443723
2023-02-03T05:18:47.011Z,9.443734
2023-02-03T05:19:47.012Z,9.443722
2023-02-03T05:20:47.100Z,9.443708
2023-02-03T05:21:46.967Z,9.443690
2023-02-03T05:22:47.758Z,9.443696
2023-02-03T05:23:46.947Z,9.443621
2023-02-03T05:24:46.936Z,9.443667
2023-02-03T05:25:46.936Z,9.443691
2023-02-03T05:26:46.923Z,9.443655
2023-02-03T05:27:46.907Z,9.443695
2023-02-03T05:28:46.900Z,9.443735
2023-02-03T05:29:46.922Z,9.443706
2023-02-03T05:30:46.892Z,9.443718
2023-02-03T05:31:46.973Z,9.443668
2023-02-03T05:32:46.876Z,9.443685
2023-02-03T05:33:46.910Z,9.443741
2023-02-03T05:34:46.947Z,9.443734
2023-02-03T05:35:46.881Z,9.443637
2023-02-03T05:36:46.880Z,9.443681
2023-02-03T05:37:46.840Z,9.443708
2023-02-03T05:38:46.915Z,9.443769
2023-02-03T05:39:46.851Z,9.443785
2023-02-03T05:40:47.843Z,9.443775
2023-02-03T05:41:46.831Z,9.443725
2023-02-03T05:42:46.824Z,9.443709
2023-02-03T05:43:46.858Z,9.443707
2023-02-03T05:44:46.813Z,9.443769
2023-02-03T05:45:47.055Z,9.443774
2023-02-03T05:46:46.804Z,9.443715
2023-02-03T05:47:46.806Z,9.443685
2023-02-03T05:48:46.777Z,9.443747
2023-02-03T05:49:47.748Z,9.443763
2023-02-03T05:50:46.898Z,9.443774
2023-02-03T05:51:46.785Z,9.443759
2023-02-03T05:52:46.791Z,9.443729
2023-02-03T05:53:46.805Z,9.443810
2023-02-03T05:54:46.750Z,9.443820
2023-02-03T05:55:46.791Z,9.443875
2023-02-03T05:56:46.772Z,9.443788
2023-02-03T05:57:46.772Z,9.443758
2023-02-03T05:58:46.737Z,9.443728
2023-02-03T05:59:46.721Z,9.443753
2023-02-03T06:00:46.710Z,9.443787
2023-02-03T06:01:46.753Z,9.443834
2023-02-03T06:02:46.718Z,9.443874
2023-02-03T06:03:46.894Z,9.443944
2023-02-03T06:04:46.786Z,9.443930
2023-02-03T06:05:46.687Z,9.443780
2023-02-03T06:06:46.683Z,9.443738
2023-02-03T06:07:47.682Z,9.443765
2023-02-03T06:08:46.728Z,9.443791
2023-02-03T06:09:46.706Z,9.443889
2023-02-03T06:10:46.663Z,9.443846
2023-02-03T06:11:46.723Z,9.443901
2023-02-03T06:12:46.659Z,9.443897
2023-02-03T06:13:46.638Z,9.443885
2023-02-03T06:14:46.657Z,9.443835
2023-02-03T06:15:46.630Z,9.443752
2023-02-03T06:16:46.673Z,9.443655
2023-02-03T06:17:46.611Z,9.443649
2023-02-03T06:18:46.639Z,9.443709
2023-02-03T06:19:46.631Z,9.443704
2023-02-03T06:20:46.654Z,9.443712
2023-02-03T06:21:46.610Z,9.443773
2023-02-03T06:22:46.596Z,9.443720
2023-02-03T06:23:46.711Z,9.443713
2023-02-03T06:24:46.584Z,9.443804
2023-02-03T06:25:46.647Z,9.443742
2023-02-03T06:26:46.589Z,9.443884
2023-02-03T06:27:46.636Z,9.443806
2023-02-03T06:28:46.604Z,9.443751
2023-02-03T06:29:46.588Z,9.443735
2023-02-03T06:30:46.709Z,9.443752
2023-02-03T06:31:46.707Z,9.443720
2023-02-03T06:32:46.548Z,9.443724
2023-02-03T06:33:46.543Z,9.443782
2023-02-03T06:34:46.611Z,9.443811
2023-02-03T06:35:46.554Z,9.443798
2023-02-03T06:36:46.525Z,9.443714
2023-02-03T06:37:46.636Z,9.443716
2023-02-03T06:38:46.504Z,9.443705
2023-02-03T06:39:46.560Z,9.443674
2023-02-03T06:40:46.522Z,9.443680
2023-02-03T06:41:46.519Z,9.443690
2023-02-03T06:42:46.476Z,9.443670
2023-02-03T06:43:46.501Z,9.443698
2023-02-03T06:44:46.486Z,9.443707
2023-02-03T06:45:46.512Z,9.443732
2023-02-03T06:46:46.477Z,9.443710
2023-02-03T06:47:46.465Z,9.443692
2023-02-03T06:48:46.476Z,9.443727
2023-02-03T06:49:46.646Z,9.443701
2023-02-03T06:50:48.513Z,9.443647
2023-02-03T06:51:47.489Z,9.443726
2023-02-03T06:52:46.444Z,9.443708
2023-02-03T06:53:46.421Z,9.443668
2023-02-03T06:54:46.463Z,9.443670
2023-02-03T06:55:46.428Z,9.443696
2023-02-03T06:56:46.442Z,9.443763
2023-02-03T06:57:46.428Z,9.443746
2023-02-03T06:58:46.407Z,9.443743
2023-02-03T06:59:46.429Z,9.443754
2023-02-03T07:00:46.390Z,9.443735
2023-02-03T07:01:46.458Z,9.443703
2023-02-03T07:02:46.477Z,9.443711
2023-02-03T07:03:46.386Z,9.443705
2023-02-03T07:04:46.406Z,9.443592
2023-02-03T07:05:46.355Z,9.443693
2023-02-03T07:06:46.412Z,9.443665
2023-02-03T07:07:46.518Z,9.443662
2023-02-03T07:08:46.343Z,9.443820
2023-02-03T07:09:46.361Z,9.443756
2023-02-03T07:10:46.348Z,9.443765
2023-02-03T07:11:46.358Z,9.443721
2023-02-03T07:12:46.319Z,9.443686
2023-02-03T07:13:46.317Z,9.443761
2023-02-03T07:14:46.341Z,9.443727
2023-02-03T07:15:46.357Z,9.443724
2023-02-03T07:16:46.340Z,9.443795
2023-02-03T07:17:46.281Z,9.443894
2023-02-03T07:18:47.921Z,9.443734
2023-02-03T07:19:47.279Z,9.443719
2023-02-03T07:20:46.316Z,9.443662
2023-02-03T07:21:46.292Z,9.443728
2023-02-03T07:22:46.290Z,9.443706
2023-02-03T07:23:46.288Z,9.443679
2023-02-03T07:24:46.288Z,9.443695
2023-02-03T07:25:46.239Z,9.443657
2023-02-03T07:26:46.269Z,9.443685
2023-02-03T07:27:47.308Z,9.443678
2023-02-03T07:28:46.239Z,9.443696
2023-02-03T07:29:46.250Z,9.443691
2023-02-03T07:30:46.398Z,9.443687
2023-02-03T07:31:46.440Z,9.443675
2023-02-03T07:32:46.218Z,9.443641
2023-02-03T07:33:46.232Z,9.443671
2023-02-03T07:34:46.206Z,9.443683
2023-02-03T07:35:46.192Z,9.443696
2023-02-03T07:36:46.196Z,9.443705
2023-02-03T07:37:46.222Z,9.443730
2023-02-03T07:38:46.199Z,9.443728
2023-02-03T07:39:46.194Z,9.443713
2023-02-03T07:40:46.153Z,9.443710
2023-02-03T07:41:46.176Z,9.443713
2023-02-03T07:42:46.165Z,9.443725
2023-02-03T07:43:46.190Z,9.443722
2023-02-03T07:44:46.143Z,9.443744
2023-02-03T07:45:46.129Z,9.443751
2023-02-03T07:46:46.189Z,9.443733
2023-02-03T07:47:46.163Z,9.443723
2023-02-03T07:48:46.127Z,9.443694
2023-02-03T07:49:46.133Z,9.443716
2023-02-03T07:50:46.122Z,9.443774
2023-02-03T07:51:46.743Z,9.443819
2023-02-03T07:52:46.103Z,9.443792
2023-02-03T07:53:46.095Z,9.443795
2023-02-03T07:54:46.077Z,9.443745
2023-02-03T07:55:46.124Z,9.443862
2023-02-03T07:56:46.090Z,9.443813
2023-02-03T07:57:46.051Z,9.443748
2023-02-03T07:58:46.083Z,9.443764
2023-02-03T07:59:46.096Z,9.443750
2023-02-03T08:00:46.056Z,9.443777
2023-02-03T08:01:46.257Z,9.443819
2023-02-03T08:02:46.023Z,9.443870
2023-02-03T08:03:46.042Z,9.443857
2023-02-03T08:04:46.112Z,9.443892
2023-02-03T08:05:46.009Z,9.443834
2023-02-03T08:06:47.025Z,9.443774
2023-02-03T08:07:46.014Z,9.443768
2023-02-03T08:08:45.996Z,9.443729
2023-02-03T08:09:46.003Z,9.443751
2023-02-03T08:10:45.984Z,9.443714
2023-02-03T08:11:46.029Z,9.443640
2023-02-03T08:12:46.000Z,9.443706
2023-02-03T08:13:45.965Z,9.443732
2023-02-03T08:14:45.982Z,9.443784
2023-02-03T08:15:46.017Z,9.443717
2023-02-03T08:16:45.952Z,9.443727
2023-02-03T08:17:45.962Z,9.443712
2023-02-03T08:18:45.947Z,9.443683
2023-02-03T08:19:45.947Z,9.443686
2023-02-03T08:20:45.936Z,9.443754
2023-02-03T08:21:45.951Z,9.443743
2023-02-03T08:22:45.940Z,9.443661
2023-02-03T08:23:45.913Z,9.443567
2023-02-03T08:24:45.907Z,9.443523
2023-02-03T08:25:45.910Z,9.443579
2023-02-03T08:26:45.896Z,9.443701
2023-02-03T08:27:45.998Z,9.443746
2023-02-03T08:28:45.890Z,9.443749
2023-02-03T08:29:45.929Z,9.443707
2023-02-03T08:30:45.921Z,9.443741
2023-02-03T08:31:45.958Z,9.443814
2023-02-03T08:32:45.853Z,9.443771
2023-02-03T08:33:45.852Z,9.443835
2023-02-03T08:34:45.856Z,9.443763
2023-02-03T08:35:45.854Z,9.443743
2023-02-03T08:36:45.822Z,9.443711
2023-02-03T08:37:45.839Z,9.443739
2023-02-03T08:38:45.850Z,9.443812
2023-02-03T08:39:45.825Z,9.443795
2023-02-03T08:40:45.841Z,9.443784
2023-02-03T08:41:45.829Z,9.443750
2023-02-03T08:42:45.796Z,9.443783
2023-02-03T08:43:45.802Z,9.443776
2023-02-03T08:44:45.800Z,9.443858
2023-02-03T08:45:45.886Z,9.443798
2023-02-03T08:46:45.783Z,9.443774
2023-02-03T08:47:45.776Z,9.443700
2023-02-03T08:48:45.769Z,9.443756
2023-02-03T08:49:45.847Z,9.443682
2023-02-03T08:50:45.795Z,9.443629
2023-02-03T08:51:45.740Z,9.443727
2023-02-03T08:52:45.765Z,9.443740
2023-02-03T08:53:45.767Z,9.443791
2023-02-03T08:54:45.747Z,9.443657
2023-02-03T08:55:45.743Z,9.443569
2023-02-03T08:56:45.711Z,9.443679
2023-02-03T08:57:45.732Z,9.443729
2023-02-03T08:58:45.750Z,9.443826
2023-02-03T08:59:45.716Z,9.443728
2023-02-03T09:00:45.730Z,9.443768
2023-02-03T09:01:45.725Z,9.443769
2023-02-03T09:02:45.694Z,9.443737
2023-02-03T09:03:45.698Z,9.443884
2023-02-03T09:04:45.742Z,9.443907
2023-02-03T09:05:45.696Z,9.443899
2023-02-03T09:06:45.687Z,9.443699
2023-02-03T09:07:45.677Z,9.443723
2023-02-03T09:08:45.725Z,9.443658
2023-02-03T09:09:45.666Z,9.443633
2023-02-03T09:10:45.638Z,9.443707
2023-02-03T09:11:45.687Z,9.443714
2023-02-03T09:12:45.649Z,9.443773
2023-02-03T09:13:46.308Z,9.443806
2023-02-03T09:14:45.669Z,9.443739
2023-02-03T09:15:45.609Z,9.443702
2023-02-03T09:16:45.671Z,9.443703
2023-02-03T09:17:45.604Z,9.443747
2023-02-03T09:18:45.603Z,9.443715
2023-02-03T09:19:45.625Z,9.443728
2023-02-03T09:20:45.610Z,9.443708
2023-02-03T09:21:46.154Z,9.443783
2023-02-03T09:22:45.593Z,9.443716
2023-02-03T09:23:45.562Z,9.443692
2023-02-03T09:24:45.592Z,9.443706
2023-02-03T09:25:48.527Z,9.443664
2023-02-03T09:26:46.567Z,9.443663
2023-02-03T09:27:45.589Z,9.443688
2023-02-03T09:28:45.547Z,9.443697
2023-02-03T09:29:45.562Z,9.443688
2023-02-03T09:30:45.576Z,9.443664
2023-02-03T09:31:45.602Z,9.443661
2023-02-03T09:32:45.521Z,9.443766
2023-02-03T09:33:45.520Z,9.443758
2023-02-03T09:34:45.523Z,9.443763
2023-02-03T09:35:45.500Z,9.443727
2023-02-03T09:36:45.481Z,9.443676
2023-02-03T09:37:45.496Z,9.443712
2023-02-03T09:38:45.498Z,9.443601
2023-02-03T09:39:45.460Z,9.443703
2023-02-03T09:40:45.456Z,9.443646
2023-02-03T09:41:45.485Z,9.443693
2023-02-03T09:42:45.445Z,9.443684
2023-02-03T09:43:45.478Z,9.443678
2023-02-03T09:44:45.455Z,9.443563
2023-02-03T09:45:45.469Z,9.443659
2023-02-03T09:46:45.434Z,9.443679
2023-02-03T09:47:45.424Z,9.443671
2023-02-03T09:48:45.427Z,9.443650
2023-02-03T09:49:45.433Z,9.443660
2023-02-03T09:50:45.406Z,9.443672
2023-02-03T09:51:45.391Z,9.443639
2023-02-03T09:52:45.403Z,9.443723
2023-02-03T09:53:45.488Z,9.443629
2023-02-03T09:54:45.380Z,9.443630
2023-02-03T09:55:45.385Z,9.443591
2023-02-03T09:56:45.488Z,9.443715
2023-02-03T09:57:45.382Z,9.443663
2023-02-03T09:58:45.361Z,9.443537
2023-02-03T09:59:45.368Z,9.443676
2023-02-03T10:00:45.342Z,9.443630
2023-02-03T10:01:45.337Z,9.443546
2023-02-03T10:02:45.355Z,9.443675
2023-02-03T10:03:45.419Z,9.443752
2023-02-03T10:04:45.342Z,9.443701
2023-02-03T10:05:45.319Z,9.443702
2023-02-03T10:06:45.297Z,9.443650
2023-02-03T10:07:45.330Z,9.443768
2023-02-03T10:08:45.279Z,9.443747
2023-02-03T10:09:45.353Z,9.443746
2023-02-03T10:10:45.269Z,9.443754
2023-02-03T10:11:45.272Z,9.443782
2023-02-03T10:12:45.252Z,9.443754
2023-02-03T10:13:45.306Z,9.443689
2023-02-03T10:14:45.248Z,9.443690
2023-02-03T10:15:45.256Z,9.443673
2023-02-03T10:16:45.312Z,9.443785
2023-02-03T10:17:46.322Z,9.443693
2023-02-03T10:18:45.227Z,9.443681
2023-02-03T10:19:45.217Z,9.443705
2023-02-03T10:20:45.225Z,9.443756
2023-02-03T10:21:45.262Z,9.443814
2023-02-03T10:22:45.238Z,9.443725
2023-02-03T10:23:45.204Z,9.443746
2023-02-03T10:24:45.191Z,9.443740
2023-02-03T10:25:45.191Z,9.443730
2023-02-03T10:26:45.205Z,9.443731
2023-02-03T10:27:45.191Z,9.443727
2023-02-03T10:28:45.171Z,9.443686
2023-02-03T10:29:45.224Z,9.443670
2023-02-03T10:30:45.529Z,9.443665
2023-02-03T10:31:45.245Z,9.443648
2023-02-03T10:32:45.148Z,9.443609
2023-02-03T10:33:45.142Z,9.443674
2023-02-03T10:34:45.108Z,9.443708
2023-02-03T10:35:45.115Z,9.443703
2023-02-03T10:36:46.125Z,9.443742
2023-02-03T10:37:45.129Z,9.443721
2023-02-03T10:38:45.143Z,9.443729
2023-02-03T10:39:45.155Z,9.443731
2023-02-03T10:40:45.088Z,9.443719
2023-02-03T10:41:45.069Z,9.443770
2023-02-03T10:42:45.098Z,9.443806
2023-02-03T10:43:45.086Z,9.443759
2023-02-03T10:44:45.082Z,9.443753
2023-02-03T10:45:45.065Z,9.443781
2023-02-03T10:46:45.171Z,9.443766
2023-02-03T10:47:45.042Z,9.443747
2023-02-03T10:48:45.048Z,9.443730
2023-02-03T10:49:45.030Z,9.443795
2023-02-03T10:50:45.058Z,9.443773
2023-02-03T10:51:45.016Z,9.443760
2023-02-03T10:52:44.998Z,9.443827
2023-02-03T10:53:45.026Z,9.443776
2023-02-03T10:54:45.024Z,9.443748
2023-02-03T10:55:45.023Z,9.443807
2023-02-03T10:56:44.972Z,9.443740
2023-02-03T10:57:44.976Z,9.443748
2023-02-03T10:58:45.032Z,9.443769
2023-02-03T10:59:44.950Z,9.443722
2023-02-03T11:00:44.951Z,9.443802
2023-02-03T11:01:44.998Z,9.443695
2023-02-03T11:02:44.976Z,9.443719
2023-02-03T11:03:44.956Z,9.443773
2023-02-03T11:04:44.947Z,9.443729
2023-02-03T11:05:44.926Z,9.443634
2023-02-03T11:06:45.030Z,9.443669
2023-02-03T11:07:44.906Z,9.443743
2023-02-03T11:08:44.915Z,9.443697
2023-02-03T11:09:44.920Z,9.443772
2023-02-03T11:10:44.903Z,9.443667
2023-02-03T11:11:44.913Z,9.443668
2023-02-03T11:12:44.923Z,9.443701
2023-02-03T11:13:44.860Z,9.443778
2023-02-03T11:14:44.924Z,9.443629
2023-02-03T11:15:44.861Z,9.443493
2023-02-03T11:16:44.894Z,9.443588
2023-02-03T11:17:44.852Z,9.443610
2023-02-03T11:18:44.837Z,9.443615
2023-02-03T11:19:44.838Z,9.443598
2023-02-03T11:20:44.884Z,9.443687
2023-02-03T11:21:44.809Z,9.443485
2023-02-03T11:22:45.792Z,9.443420
2023-02-03T11:23:44.802Z,9.443474
2023-02-03T11:24:44.809Z,9.443576
2023-02-03T11:25:44.819Z,9.443546
2023-02-03T11:26:44.781Z,9.443677
2023-02-03T11:27:44.860Z,9.443707
2023-02-03T11:28:44.753Z,9.443631
2023-02-03T11:29:44.770Z,9.443489
2023-02-03T11:30:44.876Z,9.443569
2023-02-03T11:31:44.791Z,9.443589
2023-02-03T11:32:44.744Z,9.443791
2023-02-03T11:33:44.737Z,9.443668
2023-02-03T11:34:44.779Z,9.443599
2023-02-03T11:35:44.740Z,9.443632
2023-02-03T11:36:44.724Z,9.443663
2023-02-03T11:37:44.722Z,9.443591
2023-02-03T11:38:44.792Z,9.443551
2023-02-03T11:39:44.673Z,9.443583
2023-02-03T11:40:44.732Z,9.443577
2023-02-03T11:41:44.677Z,9.443612
2023-02-03T11:42:44.690Z,9.443653
2023-02-03T11:43:44.688Z,9.443711
2023-02-03T11:44:44.655Z,9.443600